sensor_id;sensor_type;location;lat;lon;timestamp;pressure;altitude;pressure_sealevel;temperature;humidity
8075;BME280;4080;42.676;23.372;2022-11-18T00:01:39;94079.25;;;8.73;100.00
8075;BME280;4080;42.676;23.372;2022-11-18T00:04:06;94082.16;;;8.71;100.00
8075;BME280;4080;42.676;23.372;2022-11-18T00:06:33;94082.59;;;8.78;100.00
8075;BME280;4080;42.676;23.372;2022-11-18T00:08:59;94073.66;;;8.79;100.00
8075;BME280;4080;42.676;23.372;2022-11-18T00:11:26;94073.44;;;8.76;100.00
8075;BME280;4080;42.676;23.372;2022-11-18T00:14:15;94085.97;;;8.60;100.00
8075;BME280;4080;42.676;23.372;2022-11-18T00:16:48;94090.97;;;8.56;100.00
8075;BME280;4080;42.676;23.372;2022-11-18T00:19:15;94091.50;;;8.53;100.00
8075;BME280;4080;42.676;23.372;2022-11-18T00:21:42;94086.25;;;8.53;100.00
8075;BME280;4080;42.676;23.372;2022-11-18T00:24:19;94081.41;;;8.36;100.00
8075;BME280;4080;42.676;23.372;2022-11-18T00:27:00;94080.16;;;8.29;100.00
8075;BME280;4080;42.676;23.372;2022-11-18T00:29:28;94086.47;;;8.23;100.00
8075;BME280;4080;42.676;23.372;2022-11-18T00:31:56;94080.72;;;8.21;100.00
8075;BME280;4080;42.676;23.372;2022-11-18T00:34:24;94087.25;;;8.28;100.00
8075;BME280;4080;42.676;23.372;2022-11-18T00:36:51;94079.88;;;8.30;100.00
8075;BME280;4080;42.676;23.372;2022-11-18T00:39:20;94084.06;;;8.31;100.00
8075;BME280;4080;42.676;23.372;2022-11-18T00:41:48;94070.44;;;8.24;100.00
8075;BME280;4080;42.676;23.372;2022-11-18T00:44:34;94052.38;;;8.18;100.00
8075;BME280;4080;42.676;23.372;2022-11-18T00:47:03;94057.72;;;8.07;100.00
8075;BME280;4080;42.676;23.372;2022-11-18T00:49:30;94076.66;;;8.04;100.00
8075;BME280;4080;42.676;23.372;2022-11-18T00:52:00;94079.06;;;7.96;100.00
8075;BME280;4080;42.676;23.372;2022-11-18T00:54:26;94083.84;;;7.89;100.00
8075;BME280;4080;42.676;23.372;2022-11-18T00:56:56;94079.16;;;7.81;100.00
8075;BME280;4080;42.676;23.372;2022-11-18T00:59:22;94077.56;;;7.85;100.00
8075;BME280;4080;42.676;23.372;2022-11-18T01:01:50;94076.75;;;7.89;100.00
8075;BME280;4080;42.676;23.372;2022-11-18T01:04:17;94060.25;;;7.84;100.00
8075;BME280;4080;42.676;23.372;2022-11-18T01:06:44;94076.44;;;7.96;100.00
8075;BME280;4080;42.676;23.372;2022-11-18T01:09:10;94075.13;;;7.98;100.00
8075;BME280;4080;42.676;23.372;2022-11-18T01:11:37;94077.75;;;7.98;100.00
8075;BME280;4080;42.676;23.372;2022-11-18T01:14:23;94080.91;;;7.95;100.00
8075;BME280;4080;42.676;23.372;2022-11-18T01:16:53;94076.44;;;7.96;100.00
8075;BME280;4080;42.676;23.372;2022-11-18T01:19:21;94075.19;;;7.88;100.00
8075;BME280;4080;42.676;23.372;2022-11-18T01:21:48;94077.06;;;7.83;100.00
8075;BME280;4080;42.676;23.372;2022-11-18T01:24:14;94032.94;;;7.45;100.00
8075;BME280;4080;42.676;23.372;2022-11-18T01:26:41;94065.13;;;7.56;100.00
8075;BME280;4080;42.676;23.372;2022-11-18T01:29:08;94078.28;;;7.51;100.00
8075;BME280;4080;42.676;23.372;2022-11-18T01:31:36;94083.09;;;7.39;100.00
8075;BME280;4080;42.676;23.372;2022-11-18T01:34:05;94016.13;;;6.92;100.00
8075;BME280;4080;42.676;23.372;2022-11-18T01:36:31;94076.84;;;7.25;100.00
8075;BME280;4080;42.676;23.372;2022-11-18T01:38:59;94072.13;;;7.22;100.00
8075;BME280;4080;42.676;23.372;2022-11-18T01:41:26;94074.25;;;7.14;100.00
8075;BME280;4080;42.676;23.372;2022-11-18T01:43:54;94065.19;;;6.87;100.00
8075;BME280;4080;42.676;23.372;2022-11-18T01:46:23;94074.38;;;6.84;100.00
8075;BME280;4080;42.676;23.372;2022-11-18T01:48:53;94070.97;;;6.78;100.00
8075;BME280;4080;42.676;23.372;2022-11-18T01:51:24;94068.63;;;6.72;100.00
8075;BME280;4080;42.676;23.372;2022-11-18T01:53:56;94079.66;;;6.74;100.00
8075;BME280;4080;42.676;23.372;2022-11-18T01:56:31;94080.41;;;6.69;100.00
8075;BME280;4080;42.676;23.372;2022-11-18T01:59:02;94070.72;;;6.65;100.00
8075;BME280;4080;42.676;23.372;2022-11-18T02:01:31;94083.06;;;6.74;100.00
8075;BME280;4080;42.676;23.372;2022-11-18T02:03:58;94077.00;;;6.84;100.00
8075;BME280;4080;42.676;23.372;2022-11-18T02:06:26;94023.31;;;6.66;100.00
8075;BME280;4080;42.676;23.372;2022-11-18T02:08:53;94070.19;;;6.83;100.00
8075;BME280;4080;42.676;23.372;2022-11-18T02:11:20;94070.72;;;6.80;100.00
8075;BME280;4080;42.676;23.372;2022-11-18T02:14:06;94075.69;;;6.71;100.00
8075;BME280;4080;42.676;23.372;2022-11-18T02:16:44;94069.94;;;6.79;100.00
8075;BME280;4080;42.676;23.372;2022-11-18T02:19:28;94066.50;;;6.84;100.00
8075;BME280;4080;42.676;23.372;2022-11-18T02:22:04;94066.50;;;6.84;100.00
8075;BME280;4080;42.676;23.372;2022-11-18T02:24:41;94068.31;;;6.89;100.00
8075;BME280;4080;42.676;23.372;2022-11-18T02:30:15;94075.13;;;6.90;100.00
8075;BME280;4080;42.676;23.372;2022-11-18T02:32:48;94067.75;;;7.02;100.00
8075;BME280;4080;42.676;23.372;2022-11-18T02:35:23;94074.28;;;7.09;100.00
8075;BME280;4080;42.676;23.372;2022-11-18T02:37:55;94075.63;;;7.07;100.00
8075;BME280;4080;42.676;23.372;2022-11-18T02:40:27;94074.81;;;7.11;100.00
8075;BME280;4080;42.676;23.372;2022-11-18T02:42:58;94063.78;;;7.14;100.00
8075;BME280;4080;42.676;23.372;2022-11-18T02:45:29;94069.50;;;7.22;100.00
8075;BME280;4080;42.676;23.372;2022-11-18T02:48:00;94067.44;;;7.19;100.00
8075;BME280;4080;42.676;23.372;2022-11-18T02:50:29;94037.09;;;6.97;100.00
8075;BME280;4080;42.676;23.372;2022-11-18T02:53:00;94057.50;;;7.10;100.00
8075;BME280;4080;42.676;23.372;2022-11-18T02:55:30;94065.06;;;7.17;100.00
8075;BME280;4080;42.676;23.372;2022-11-18T02:57:59;94056.69;;;7.15;100.00
8075;BME280;4080;42.676;23.372;2022-11-18T03:00:29;94063.75;;;7.20;100.00
8075;BME280;4080;42.676;23.372;2022-11-18T03:02:56;94061.38;;;7.23;100.00
8075;BME280;4080;42.676;23.372;2022-11-18T03:05:29;94065.84;;;7.18;100.00
8075;BME280;4080;42.676;23.372;2022-11-18T03:08:01;94065.84;;;7.18;100.00
8075;BME280;4080;42.676;23.372;2022-11-18T03:10:39;94088.94;;;7.15;100.00
8075;BME280;4080;42.676;23.372;2022-11-18T03:13:10;94083.69;;;7.15;100.00
8075;BME280;4080;42.676;23.372;2022-11-18T03:15:49;94086.84;;;7.18;100.00
8075;BME280;4080;42.676;23.372;2022-11-18T03:18:25;94072.41;;;7.20;100.00
8075;BME280;4080;42.676;23.372;2022-11-18T03:20:57;94085.00;;;7.18;100.00
8075;BME280;4080;42.676;23.372;2022-11-18T03:23:32;94006.00;;;6.65;100.00
8075;BME280;4080;42.676;23.372;2022-11-18T03:26:03;94064.84;;;7.13;100.00
8075;BME280;4080;42.676;23.372;2022-11-18T03:28:36;94062.22;;;7.13;100.00
8075;BME280;4080;42.676;23.372;2022-11-18T03:31:11;94062.72;;;7.15;100.00
8075;BME280;4080;42.676;23.372;2022-11-18T03:33:42;94061.41;;;7.18;100.00
8075;BME280;4080;42.676;23.372;2022-11-18T03:36:13;94051.19;;;7.11;100.00
8075;BME280;4080;42.676;23.372;2022-11-18T03:38:43;94058.00;;;7.18;100.00
8075;BME280;4080;42.676;23.372;2022-11-18T03:41:13;94055.91;;;7.14;100.00
8075;BME280;4080;42.676;23.372;2022-11-18T03:43:43;94069.25;;;7.18;100.00
8075;BME280;4080;42.676;23.372;2022-11-18T03:46:16;94061.66;;;7.22;100.00
8075;BME280;4080;42.676;23.372;2022-11-18T03:48:48;94069.22;;;7.28;100.00
8075;BME280;4080;42.676;23.372;2022-11-18T03:51:18;94051.41;;;7.20;100.00
8075;BME280;4080;42.676;23.372;2022-11-18T03:53:51;94046.38;;;7.29;100.00
8075;BME280;4080;42.676;23.372;2022-11-18T03:56:23;94043.22;;;7.32;100.00
8075;BME280;4080;42.676;23.372;2022-11-18T03:58:53;94050.56;;;7.35;100.00
8075;BME280;4080;42.676;23.372;2022-11-18T04:01:27;94037.81;;;7.13;100.00
8075;BME280;4080;42.676;23.372;2022-11-18T04:03:57;94044.06;;;7.22;100.00
8075;BME280;4080;42.676;23.372;2022-11-18T04:06:29;94047.19;;;7.24;100.00
8075;BME280;4080;42.676;23.372;2022-11-18T04:09:05;94052.69;;;7.28;100.00
8075;BME280;4080;42.676;23.372;2022-11-18T04:11:36;94044.00;;;7.32;100.00
8075;BME280;4080;42.676;23.372;2022-11-18T04:14:25;94059.22;;;7.30;100.00
8075;BME280;4080;42.676;23.372;2022-11-18T04:16:53;94047.44;;;7.28;100.00
8075;BME280;4080;42.676;23.372;2022-11-18T04:19:20;94025.75;;;7.12;100.00
8075;BME280;4080;42.676;23.372;2022-11-18T04:21:47;94067.88;;;7.31;100.00
8075;BME280;4080;42.676;23.372;2022-11-18T04:24:15;94060.03;;;7.36;100.00
8075;BME280;4080;42.676;23.372;2022-11-18T04:26:41;94053.44;;;7.33;100.00
8075;BME280;4080;42.676;23.372;2022-11-18T04:29:08;94056.06;;;7.38;100.00
8075;BME280;4080;42.676;23.372;2022-11-18T04:31:35;94064.41;;;7.45;100.00
8075;BME280;4080;42.676;23.372;2022-11-18T04:34:03;94077.03;;;7.43;100.00
8075;BME280;4080;42.676;23.372;2022-11-18T04:36:29;94056.53;;;7.45;100.00
8075;BME280;4080;42.676;23.372;2022-11-18T04:38:56;94050.06;;;7.28;100.00
8075;BME280;4080;42.676;23.372;2022-11-18T04:41:23;94074.16;;;7.40;100.00
8075;BME280;4080;42.676;23.372;2022-11-18T04:44:09;94075.72;;;7.41;100.00
8075;BME280;4080;42.676;23.372;2022-11-18T04:46:39;94081.75;;;7.41;100.00
8075;BME280;4080;42.676;23.372;2022-11-18T04:49:08;94079.41;;;7.40;100.00
8075;BME280;4080;42.676;23.372;2022-11-18T04:51:35;94076.78;;;7.40;100.00
8075;BME280;4080;42.676;23.372;2022-11-18T04:54:02;94081.53;;;7.38;100.00
8075;BME280;4080;42.676;23.372;2022-11-18T04:56:29;94077.06;;;7.38;100.00
8075;BME280;4080;42.676;23.372;2022-11-18T04:58:57;94064.22;;;7.32;100.00
8075;BME280;4080;42.676;23.372;2022-11-18T05:01:24;94070.72;;;7.44;100.00
8075;BME280;4080;42.676;23.372;2022-11-18T05:03:50;94075.72;;;7.41;100.00
8075;BME280;4080;42.676;23.372;2022-11-18T05:06:19;94067.06;;;7.40;100.00
8075;BME280;4080;42.676;23.372;2022-11-18T05:08:45;94071.53;;;7.40;100.00
8075;BME280;4080;42.676;23.372;2022-11-18T05:11:12;94071.50;;;7.45;100.00
8075;BME280;4080;42.676;23.372;2022-11-18T05:14:05;94075.41;;;7.53;100.00
8075;BME280;4080;42.676;23.372;2022-11-18T05:16:31;94074.09;;;7.50;100.00
8075;BME280;4080;42.676;23.372;2022-11-18T05:18:58;94072.59;;;7.39;100.00
8075;BME280;4080;42.676;23.372;2022-11-18T05:21:28;94073.84;;;7.46;100.00
8075;BME280;4080;42.676;23.372;2022-11-18T05:23:55;94087.97;;;7.56;100.00
8075;BME280;4080;42.676;23.372;2022-11-18T05:26:22;94078.81;;;7.53;100.00
8075;BME280;4080;42.676;23.372;2022-11-18T05:28:48;94090.88;;;7.54;100.00
8075;BME280;4080;42.676;23.372;2022-11-18T05:31:15;94081.41;;;7.58;100.00
8075;BME280;4080;42.676;23.372;2022-11-18T05:33:43;94083.19;;;7.68;100.00
8075;BME280;4080;42.676;23.372;2022-11-18T05:36:11;94088.66;;;7.76;100.00
8075;BME280;4080;42.676;23.372;2022-11-18T05:38:40;94077.63;;;7.74;100.00
8075;BME280;4080;42.676;23.372;2022-11-18T05:41:07;94089.63;;;7.86;100.00
8075;BME280;4080;42.676;23.372;2022-11-18T05:43:36;94085.91;;;7.92;100.00
8075;BME280;4080;42.676;23.372;2022-11-18T05:46:02;94058.75;;;7.72;100.00
8075;BME280;4080;42.676;23.372;2022-11-18T05:48:29;94092.50;;;7.89;100.00
8075;BME280;4080;42.676;23.372;2022-11-18T05:50:55;94087.47;;;7.93;100.00
8075;BME280;4080;42.676;23.372;2022-11-18T05:53:23;94075.19;;;7.88;100.00
8075;BME280;4080;42.676;23.372;2022-11-18T05:55:56;94075.38;;;8.02;100.00
8075;BME280;4080;42.676;23.372;2022-11-18T05:58:25;94085.28;;;8.10;100.00
8075;BME280;4080;42.676;23.372;2022-11-18T06:00:55;94068.53;;;8.01;100.00
8075;BME280;4080;42.676;23.372;2022-11-18T06:03:26;94091.81;;;8.13;100.00
8075;BME280;4080;42.676;23.372;2022-11-18T06:05:53;94089.88;;;8.23;100.00
8075;BME280;4080;42.676;23.372;2022-11-18T06:08:22;94089.09;;;8.28;100.00
8075;BME280;4080;42.676;23.372;2022-11-18T06:10:52;94088.03;;;8.29;100.00
8075;BME280;4080;42.676;23.372;2022-11-18T06:13:22;94087.25;;;8.28;100.00
8075;BME280;4080;42.676;23.372;2022-11-18T06:15:51;94076.16;;;8.36;100.00
8075;BME280;4080;42.676;23.372;2022-11-18T06:18:20;94091.94;;;8.31;100.00
8075;BME280;4080;42.676;23.372;2022-11-18T06:20:50;94087.78;;;8.25;100.00
8075;BME280;4080;42.676;23.372;2022-11-18T06:23:18;94088.25;;;8.32;100.00
8075;BME280;4080;42.676;23.372;2022-11-18T06:25:45;94089.03;;;8.38;100.00
8075;BME280;4080;42.676;23.372;2022-11-18T06:28:15;94084.00;;;8.42;100.00
8075;BME280;4080;42.676;23.372;2022-11-18T06:30:43;94076.16;;;8.36;100.00
8075;BME280;4080;42.676;23.372;2022-11-18T06:33:09;94083.94;;;8.47;100.00
8075;BME280;4080;42.676;23.372;2022-11-18T06:35:36;94067.72;;;8.39;100.00
8075;BME280;4080;42.676;23.372;2022-11-18T06:38:03;94080.25;;;8.48;100.00
8075;BME280;4080;42.676;23.372;2022-11-18T06:40:30;94068.13;;;8.52;100.00
8075;BME280;4080;42.676;23.372;2022-11-18T06:42:57;94080.19;;;8.58;100.00
8075;BME280;4080;42.676;23.372;2022-11-18T06:45:42;94073.38;;;8.52;100.00
8075;BME280;4080;42.676;23.372;2022-11-18T06:48:30;94042.06;;;8.26;100.00
8075;BME280;4080;42.676;23.372;2022-11-18T06:50:57;94080.22;;;8.53;100.00
8075;BME280;4080;42.676;23.372;2022-11-18T06:53:24;94082.81;;;8.58;100.00
8075;BME280;4080;42.676;23.372;2022-11-18T06:55:51;94087.28;;;8.57;100.00
8075;BME280;4080;42.676;23.372;2022-11-18T06:58:17;94079.63;;;8.61;100.00
8075;BME280;4080;42.676;23.372;2022-11-18T07:00:45;94083.00;;;8.66;100.00
8075;BME280;4080;42.676;23.372;2022-11-18T07:03:12;94083.22;;;8.70;100.00
8075;BME280;4080;42.676;23.372;2022-11-18T07:05:39;94078.81;;;8.65;100.00
8075;BME280;4080;42.676;23.372;2022-11-18T07:08:05;94080.03;;;8.73;100.00
8075;BME280;4080;42.676;23.372;2022-11-18T07:10:32;94082.06;;;8.81;100.00
8075;BME280;4080;42.676;23.372;2022-11-18T07:12:59;94086.31;;;8.77;100.00
8075;BME280;4080;42.676;23.372;2022-11-18T07:15:25;94067.28;;;8.85;100.00
8075;BME280;4080;42.676;23.372;2022-11-18T07:17:54;94081.63;;;8.98;100.00
8075;BME280;4080;42.676;23.372;2022-11-18T07:20:20;94069.13;;;9.09;100.00
8075;BME280;4080;42.676;23.372;2022-11-18T07:22:51;94060.47;;;9.08;100.00
8075;BME280;4080;42.676;23.372;2022-11-18T07:25:17;94053.56;;;9.12;100.00
8075;BME280;4080;42.676;23.372;2022-11-18T07:27:45;94056.09;;;9.22;100.00
8075;BME280;4080;42.676;23.372;2022-11-18T07:30:12;94053.13;;;9.29;100.00
8075;BME280;4080;42.676;23.372;2022-11-18T07:32:39;94055.69;;;9.34;100.00
8075;BME280;4080;42.676;23.372;2022-11-18T07:35:08;94051.84;;;9.26;100.00
8075;BME280;4080;42.676;23.372;2022-11-18T07:37:35;94054.41;;;9.31;100.00
8075;BME280;4080;42.676;23.372;2022-11-18T07:40:01;94036.75;;;9.32;100.00
8075;BME280;4080;42.676;23.372;2022-11-18T07:42:28;94042.09;;;9.27;100.00
8075;BME280;4080;42.676;23.372;2022-11-18T07:45:08;94046.34;;;9.23;100.00
8075;BME280;4080;42.676;23.372;2022-11-18T07:47:34;94043.38;;;9.29;100.00
8075;BME280;4080;42.676;23.372;2022-11-18T07:50:01;94036.63;;;9.23;100.00
8075;BME280;4080;42.676;23.372;2022-11-18T07:52:29;94043.91;;;9.08;100.00
8075;BME280;4080;42.676;23.372;2022-11-18T07:54:56;94059.06;;;9.16;100.00
8075;BME280;4080;42.676;23.372;2022-11-18T07:57:23;94048.31;;;9.12;100.00
8075;BME280;4080;42.676;23.372;2022-11-18T07:59:49;94047.31;;;9.08;100.00
8075;BME280;4080;42.676;23.372;2022-11-18T08:02:16;94059.69;;;9.08;100.00
8075;BME280;4080;42.676;23.372;2022-11-18T08:04:43;94068.41;;;9.03;100.00
8075;BME280;4080;42.676;23.372;2022-11-18T08:07:09;94085.69;;;9.09;100.00
8075;BME280;4080;42.676;23.372;2022-11-18T08:09:38;94081.94;;;9.15;100.00
8075;BME280;4080;42.676;23.372;2022-11-18T08:12:05;94081.78;;;9.30;100.00
8075;BME280;4080;42.676;23.372;2022-11-18T08:14:31;94081.38;;;9.42;100.00
8075;BME280;4080;42.676;23.372;2022-11-18T08:16:58;94089.72;;;9.49;100.00
8075;BME280;4080;42.676;23.372;2022-11-18T08:19:25;94085.44;;;9.53;100.00
8075;BME280;4080;42.676;23.372;2022-11-18T08:21:52;94086.66;;;9.61;100.00
8075;BME280;4080;42.676;23.372;2022-11-18T08:24:19;94065.25;;;9.68;100.00
8075;BME280;4080;42.676;23.372;2022-11-18T08:26:47;94062.69;;;9.81;100.00
8075;BME280;4080;42.676;23.372;2022-11-18T08:29:13;94062.66;;;10.00;100.00
8075;BME280;4080;42.676;23.372;2022-11-18T08:31:40;94060.44;;;10.07;100.00
8075;BME280;4080;42.676;23.372;2022-11-18T08:34:07;94062.66;;;10.19;100.00
8075;BME280;4080;42.676;23.372;2022-11-18T08:36:35;94057.94;;;10.35;100.00
8075;BME280;4080;42.676;23.372;2022-11-18T08:39:04;94028.16;;;10.20;100.00
8075;BME280;4080;42.676;23.372;2022-11-18T08:41:33;94035.63;;;10.46;100.00
8075;BME280;4080;42.676;23.372;2022-11-18T08:44:02;94044.09;;;10.75;100.00
8075;BME280;4080;42.676;23.372;2022-11-18T08:46:29;94030.31;;;10.92;100.00
8075;BME280;4080;42.676;23.372;2022-11-18T08:48:56;94021.59;;;11.33;100.00
8075;BME280;4080;42.676;23.372;2022-11-18T08:51:23;94034.00;;;11.32;100.00
8075;BME280;4080;42.676;23.372;2022-11-18T08:53:50;94018.97;;;11.33;100.00
8075;BME280;4080;42.676;23.372;2022-11-18T08:56:18;93992.38;;;11.15;100.00
8075;BME280;4080;42.676;23.372;2022-11-18T08:58:45;94001.84;;;11.16;100.00
8075;BME280;4080;42.676;23.372;2022-11-18T09:01:13;93986.84;;;11.03;100.00
8075;BME280;4080;42.676;23.372;2022-11-18T09:03:40;93986.22;;;10.93;100.00
8075;BME280;4080;42.676;23.372;2022-11-18T09:06:09;93987.41;;;10.86;100.00
8075;BME280;4080;42.676;23.372;2022-11-18T09:08:36;93972.00;;;10.80;100.00
8075;BME280;4080;42.676;23.372;2022-11-18T09:11:07;93968.97;;;10.73;100.00
8075;BME280;4080;42.676;23.372;2022-11-18T09:13:34;93966.09;;;10.69;100.00
8075;BME280;4080;42.676;23.372;2022-11-18T09:16:02;93950.47;;;10.59;100.00
8075;BME280;4080;42.676;23.372;2022-11-18T09:18:32;93971.38;;;10.42;100.00
8075;BME280;4080;42.676;23.372;2022-11-18T09:21:00;93953.53;;;10.20;100.00
8075;BME280;4080;42.676;23.372;2022-11-18T09:23:27;93938.75;;;10.24;100.00
8075;BME280;4080;42.676;23.372;2022-11-18T09:25:56;93965.28;;;10.27;100.00
8075;BME280;4080;42.676;23.372;2022-11-18T09:28:23;93948.66;;;10.13;100.00
8075;BME280;4080;42.676;23.372;2022-11-18T09:30:50;93948.06;;;10.16;100.00
8075;BME280;4080;42.676;23.372;2022-11-18T09:33:17;93973.16;;;10.14;100.00
8075;BME280;4080;42.676;23.372;2022-11-18T09:35:45;93963.69;;;10.13;100.00
8075;BME280;4080;42.676;23.372;2022-11-18T09:38:12;93955.50;;;10.14;100.00
8075;BME280;4080;42.676;23.372;2022-11-18T09:40:45;93946.81;;;10.14;100.00
8075;BME280;4080;42.676;23.372;2022-11-18T09:43:20;93937.63;;;10.11;100.00
8075;BME280;4080;42.676;23.372;2022-11-18T09:45:56;93936.06;;;10.10;100.00
8075;BME280;4080;42.676;23.372;2022-11-18T09:48:24;93925.59;;;10.05;100.00
8075;BME280;4080;42.676;23.372;2022-11-18T09:51:13;93889.19;;;10.07;100.00
8075;BME280;4080;42.676;23.372;2022-11-18T09:53:40;93892.28;;;10.28;100.00
8075;BME280;4080;42.676;23.372;2022-11-18T09:56:13;93897.75;;;10.45;100.00
8075;BME280;4080;42.676;23.372;2022-11-18T09:58:41;93909.56;;;10.62;100.00
8075;BME280;4080;42.676;23.372;2022-11-18T10:01:11;93872.53;;;10.80;100.00
8075;BME280;4080;42.676;23.372;2022-11-18T10:03:39;93909.16;;;11.54;100.00
8075;BME280;4080;42.676;23.372;2022-11-18T10:06:17;93904.63;;;11.91;100.00
8075;BME280;4080;42.676;23.372;2022-11-18T10:08:56;93901.72;;;12.32;100.00
8075;BME280;4080;42.676;23.372;2022-11-18T10:11:27;93903.47;;;12.93;100.00
8075;BME280;4080;42.676;23.372;2022-11-18T10:14:10;93914.22;;;12.88;100.00
8075;BME280;4080;42.676;23.372;2022-11-18T10:16:47;93933.16;;;12.82;100.00
8075;BME280;4080;42.676;23.372;2022-11-18T10:19:24;93918.50;;;12.67;100.00
8075;BME280;4080;42.676;23.372;2022-11-18T10:22:16;93916.31;;;12.60;100.00
8075;BME280;4080;42.676;23.372;2022-11-18T10:24:48;93877.75;;;12.85;100.00
8075;BME280;4080;42.676;23.372;2022-11-18T10:27:16;93891.72;;;13.34;100.00
8075;BME280;4080;42.676;23.372;2022-11-18T10:29:47;93895.91;;;13.61;100.00
8075;BME280;4080;42.676;23.372;2022-11-18T10:32:17;93878.69;;;14.02;100.00
8075;BME280;4080;42.676;23.372;2022-11-18T10:34:49;93894.47;;;14.53;100.00
8075;BME280;4080;42.676;23.372;2022-11-18T10:37:26;93870.63;;;15.04;100.00
8075;BME280;4080;42.676;23.372;2022-11-18T10:39:55;93878.94;;;15.44;100.00
8075;BME280;4080;42.676;23.372;2022-11-18T10:42:26;93867.75;;;15.50;100.00
8075;BME280;4080;42.676;23.372;2022-11-18T10:44:54;93871.16;;;15.39;100.00
8075;BME280;4080;42.676;23.372;2022-11-18T10:47:26;93869.22;;;15.69;100.00
8075;BME280;4080;42.676;23.372;2022-11-18T10:49:55;93862.59;;;15.75;100.00
8075;BME280;4080;42.676;23.372;2022-11-18T10:52:24;93859.88;;;15.42;100.00
8075;BME280;4080;42.676;23.372;2022-11-18T10:55:17;93864.59;;;15.15;100.00
8075;BME280;4080;42.676;23.372;2022-11-18T10:57:45;93843.28;;;14.82;100.00
8075;BME280;4080;42.676;23.372;2022-11-18T11:00:40;93828.78;;;14.50;100.00
8075;BME280;4080;42.676;23.372;2022-11-18T11:03:25;93848.31;;;14.37;100.00
8075;BME280;4080;42.676;23.372;2022-11-18T11:08:58;93830.00;;;14.15;100.00
8075;BME280;4080;42.676;23.372;2022-11-18T11:11:27;93835.34;;;13.97;100.00
8075;BME280;4080;42.676;23.372;2022-11-18T11:14:00;93824.19;;;13.75;100.00
8075;BME280;4080;42.676;23.372;2022-11-18T11:16:29;93846.00;;;13.72;100.00
8075;BME280;4080;42.676;23.372;2022-11-18T11:18:59;93837.16;;;13.67;100.00
8075;BME280;4080;42.676;23.372;2022-11-18T11:21:27;93830.28;;;13.66;100.00
8075;BME280;4080;42.676;23.372;2022-11-18T11:23:56;93815.94;;;13.67;100.00
8075;BME280;4080;42.676;23.372;2022-11-18T11:26:30;93810.78;;;13.71;100.00
8075;BME280;4080;42.676;23.372;2022-11-18T11:29:05;93811.88;;;13.70;100.00
8075;BME280;4080;42.676;23.372;2022-11-18T11:31:42;93808.78;;;13.68;100.00
8075;BME280;4080;42.676;23.372;2022-11-18T11:34:18;93812.69;;;13.62;100.00
8075;BME280;4080;42.676;23.372;2022-11-18T11:36:50;93810.81;;;13.62;100.00
8075;BME280;4080;42.676;23.372;2022-11-18T11:39:38;93791.03;;;13.60;100.00
8075;BME280;4080;42.676;23.372;2022-11-18T11:42:15;93800.41;;;13.49;100.00
8075;BME280;4080;42.676;23.372;2022-11-18T11:44:57;93798.69;;;13.53;100.00
8075;BME280;4080;42.676;23.372;2022-11-18T11:47:35;93795.72;;;13.54;100.00
8075;BME280;4080;42.676;23.372;2022-11-18T11:50:22;93785.59;;;13.56;100.00
8075;BME280;4080;42.676;23.372;2022-11-18T11:53:07;93768.31;;;13.50;100.00
8075;BME280;4080;42.676;23.372;2022-11-18T11:55:52;93793.50;;;13.65;100.00
8075;BME280;4080;42.676;23.372;2022-11-18T11:58:33;93795.84;;;13.66;100.00
8075;BME280;4080;42.676;23.372;2022-11-18T12:01:16;93797.41;;;13.67;100.00
8075;BME280;4080;42.676;23.372;2022-11-18T12:03:45;93778.41;;;13.57;100.00
8075;BME280;4080;42.676;23.372;2022-11-18T12:06:13;93791.19;;;13.63;100.00
8075;BME280;4080;42.676;23.372;2022-11-18T12:08:48;93780.91;;;13.62;100.00
8075;BME280;4080;42.676;23.372;2022-11-18T12:11:25;93786.38;;;13.57;100.00
8075;BME280;4080;42.676;23.372;2022-11-18T12:13:58;93779.84;;;13.54;100.00
8075;BME280;4080;42.676;23.372;2022-11-18T12:16:32;93782.03;;;13.52;100.00
8075;BME280;4080;42.676;23.372;2022-11-18T12:19:06;93775.16;;;13.51;100.00
8075;BME280;4080;42.676;23.372;2022-11-18T12:21:54;93770.28;;;13.62;100.00
8075;BME280;4080;42.676;23.372;2022-11-18T12:24:30;93755.00;;;13.67;100.00
8075;BME280;4080;42.676;23.372;2022-11-18T12:27:00;93768.72;;;13.70;100.00
8075;BME280;4080;42.676;23.372;2022-11-18T12:29:37;93745.91;;;13.77;100.00
8075;BME280;4080;42.676;23.372;2022-11-18T12:35:29;93746.38;;;13.88;100.00
8075;BME280;4080;42.676;23.372;2022-11-18T12:38:00;93739.97;;;13.89;100.00
8075;BME280;4080;42.676;23.372;2022-11-18T12:40:45;93768.34;;;13.88;100.00
8075;BME280;4080;42.676;23.372;2022-11-18T12:46:53;93728.41;;;13.93;100.00
8075;BME280;4080;42.676;23.372;2022-11-18T12:52:47;93758.28;;;14.03;100.00
8075;BME280;4080;42.676;23.372;2022-11-18T12:55:18;93724.59;;;14.03;100.00
8075;BME280;4080;42.676;23.372;2022-11-18T12:57:46;93715.22;;;14.06;100.00
8075;BME280;4080;42.676;23.372;2022-11-18T13:00:31;93713.97;;;14.12;100.00
8075;BME280;4080;42.676;23.372;2022-11-18T13:03:23;93725.69;;;14.11;100.00
8075;BME280;4080;42.676;23.372;2022-11-18T13:06:04;93728.72;;;14.21;100.00
8075;BME280;4080;42.676;23.372;2022-11-18T13:08:32;93702.78;;;14.27;100.00
8075;BME280;4080;42.676;23.372;2022-11-18T13:11:07;93688.03;;;14.47;100.00
8075;BME280;4080;42.676;23.372;2022-11-18T13:13:52;93692.50;;;14.76;100.00
8075;BME280;4080;42.676;23.372;2022-11-18T13:16:40;93683.59;;;14.93;100.00
8075;BME280;4080;42.676;23.372;2022-11-18T13:19:28;93696.03;;;15.01;100.00
8075;BME280;4080;42.676;23.372;2022-11-18T13:21:55;93709.47;;;14.96;100.00
8075;BME280;4080;42.676;23.372;2022-11-18T13:24:44;93709.44;;;14.83;100.00
8075;BME280;4080;42.676;23.372;2022-11-18T13:27:21;93669.06;;;14.78;100.00
8075;BME280;4080;42.676;23.372;2022-11-18T13:29:58;93665.09;;;14.84;100.00
8075;BME280;4080;42.676;23.372;2022-11-18T13:32:27;93678.41;;;14.96;100.00
8075;BME280;4080;42.676;23.372;2022-11-18T13:34:57;93679.31;;;15.33;100.00
8075;BME280;4080;42.676;23.372;2022-11-18T13:37:26;93687.34;;;15.70;100.00
8075;BME280;4080;42.676;23.372;2022-11-18T13:39:54;93660.97;;;15.89;100.00
8075;BME280;4080;42.676;23.372;2022-11-18T13:42:22;93655.91;;;15.96;100.00
8075;BME280;4080;42.676;23.372;2022-11-18T13:44:54;93639.16;;;16.08;100.00